createdAt,value
2023-02-19T00:01:53.732Z,100458.19
2023-02-19T00:04:59.720Z,100460.19
2023-02-19T00:08:02.351Z,100463.44
2023-02-19T00:11:08.263Z,100453.47
2023-02-19T00:14:14.821Z,100453.66
2023-02-19T00:17:20.329Z,100470.13
2023-02-19T00:20:22.905Z,100464.38
2023-02-19T00:23:28.427Z,100464.16
2023-02-19T00:26:31.485Z,100459.47
2023-02-19T00:29:37.048Z,100463.75
2023-02-19T00:32:39.705Z,100468.41
2023-02-19T00:35:46.591Z,100464.72
2023-02-19T00:38:49.681Z,100453.09
2023-02-19T00:41:55.110Z,100435.13
2023-02-19T00:44:58.219Z,100456.31
2023-02-19T00:48:00.828Z,100455.69
2023-02-19T00:51:05.929Z,100455.81
2023-02-19T00:54:08.476Z,100446.28
2023-02-19T00:57:10.948Z,100448.19
2023-02-19T01:00:13.970Z,100443.28
2023-02-19T01:03:16.678Z,100441.63
2023-02-19T01:06:21.245Z,100445.56
2023-02-19T01:09:23.804Z,100444.41
2023-02-19T01:12:28.235Z,100448.91
2023-02-19T01:15:33.273Z,100440.00
2023-02-19T01:18:35.912Z,100456.28
2023-02-19T01:21:40.538Z,100450.38
2023-02-19T01:24:43.058Z,100446.19
2023-02-19T01:27:45.758Z,100451.84
2023-02-19T01:30:48.281Z,100451.03
2023-02-19T01:33:53.522Z,100445.09
2023-02-19T01:36:56.141Z,100449.22
2023-02-19T01:39:58.732Z,100465.16
2023-02-19T01:43:01.538Z,100473.81
2023-02-19T01:46:04.273Z,100465.53
2023-02-19T01:49:23.564Z,100469.41
2023-02-19T01:52:31.884Z,100444.09
2023-02-19T01:55:35.348Z,100449.06
2023-02-19T01:58:38.343Z,100456.47
2023-02-19T02:01:41.278Z,100472.06
2023-02-19T02:04:43.984Z,100459.34
2023-02-19T02:08:04.812Z,100449.41
2023-02-19T02:11:07.521Z,100456.38
2023-02-19T02:14:10.390Z,100451.22
2023-02-19T02:17:24.633Z,100445.44
2023-02-19T02:20:54.472Z,100438.31
2023-02-19T02:24:21.344Z,100436.75
2023-02-19T02:27:59.038Z,100431.28
2023-02-19T02:31:25.742Z,100436.19
2023-02-19T02:34:34.940Z,100434.78
2023-02-19T02:37:42.693Z,100417.88
2023-02-19T02:40:45.732Z,100411.38
2023-02-19T02:43:50.618Z,100426.03
2023-02-19T02:46:53.519Z,100405.25
2023-02-19T02:50:07.038Z,100425.03
2023-02-19T02:53:37.556Z,100434.38
2023-02-19T02:56:50.540Z,100429.47
2023-02-19T02:59:53.347Z,100433.16
2023-02-19T03:02:57.997Z,100419.69
2023-02-19T03:06:04.257Z,100417.84
2023-02-19T03:09:16.237Z,100410.91
2023-02-19T03:12:40.324Z,100399.50
2023-02-19T03:16:06.428Z,100403.75
2023-02-19T03:19:19.110Z,100393.28
2023-02-19T03:22:29.894Z,100411.19
2023-02-19T03:25:55.224Z,100413.97
2023-02-19T03:29:23.653Z,100416.44
2023-02-19T03:32:36.307Z,100403.03
2023-02-19T03:35:49.602Z,100432.00
2023-02-19T03:39:07.384Z,100442.13
2023-02-19T03:42:11.217Z,100434.13
2023-02-19T03:45:24.914Z,100433.59
2023-02-19T03:48:37.858Z,100429.38
2023-02-19T03:51:51.582Z,100442.34
2023-02-19T03:55:18.599Z,100441.66
2023-02-19T03:58:30.619Z,100459.38
2023-02-19T04:01:36.206Z,100453.56
2023-02-19T04:04:49.982Z,100445.94
2023-02-19T04:08:06.359Z,100450.69
2023-02-19T04:11:17.064Z,100456.16
2023-02-19T04:15:00.856Z,100451.88
2023-02-19T04:18:10.789Z,100464.81
2023-02-19T04:21:13.622Z,100463.22
2023-02-19T04:24:26.610Z,100461.09
2023-02-19T04:27:29.240Z,100449.66
2023-02-19T04:30:34.850Z,100463.09
2023-02-19T04:33:40.961Z,100454.13
2023-02-19T04:36:43.431Z,100464.97
2023-02-19T04:39:49.252Z,100469.72
2023-02-19T04:42:51.813Z,100454.44
2023-02-19T04:46:01.915Z,100475.25
2023-02-19T04:49:08.348Z,100435.94
2023-02-19T04:52:13.549Z,100466.72
2023-02-19T04:55:16.160Z,100473.66
2023-02-19T04:58:18.932Z,100463.84
2023-02-19T05:01:21.564Z,100455.91
2023-02-19T05:04:26.843Z,100471.16
2023-02-19T05:07:29.417Z,100472.97
2023-02-19T05:10:37.309Z,100473.38
2023-02-19T05:13:40.409Z,100466.22
2023-02-19T05:16:43.170Z,100467.97
2023-02-19T05:19:45.695Z,100452.13
2023-02-19T05:22:51.028Z,100460.88
2023-02-19T05:25:54.230Z,100447.19
2023-02-19T05:29:00.482Z,100462.69
2023-02-19T05:32:06.450Z,100470.75
2023-02-19T05:35:10.426Z,100463.63
2023-02-19T05:38:13.093Z,100464.16
2023-02-19T05:41:18.371Z,100455.53
2023-02-19T05:44:21.160Z,100452.34
2023-02-19T05:47:23.686Z,100449.09
2023-02-19T05:50:28.729Z,100472.31
2023-02-19T05:53:33.465Z,100489.88
2023-02-19T05:56:46.420Z,100472.19
2023-02-19T05:59:48.992Z,100473.81
2023-02-19T06:02:53.828Z,100488.66
2023-02-19T06:05:59.636Z,100490.50
2023-02-19T06:09:02.278Z,100473.13
2023-02-19T06:12:07.390Z,100482.56
2023-02-19T06:15:09.972Z,100473.78
2023-02-19T06:18:15.959Z,100471.94
2023-02-19T06:21:19.042Z,100456.44
2023-02-19T06:24:24.305Z,100467.03
2023-02-19T06:27:29.619Z,100463.56
2023-02-19T06:30:34.962Z,100458.50
2023-02-19T06:33:40.652Z,100461.19
2023-02-19T06:36:43.375Z,100456.28
2023-02-19T06:39:45.924Z,100464.44
2023-02-19T06:42:51.385Z,100443.06
2023-02-19T06:45:56.147Z,100459.97
2023-02-19T06:48:59.704Z,100464.66
2023-02-19T06:52:04.716Z,100440.00
2023-02-19T06:55:10.841Z,100451.59
2023-02-19T06:58:13.437Z,100460.94
2023-02-19T07:01:16.160Z,100460.56
2023-02-19T07:04:18.907Z,100447.13
2023-02-19T07:07:21.554Z,100451.03
2023-02-19T07:10:29.286Z,100449.00
2023-02-19T07:13:31.908Z,100460.81
2023-02-19T07:16:38.973Z,100466.13
2023-02-19T07:19:41.628Z,100457.59
2023-02-19T07:22:46.754Z,100447.00
2023-02-19T07:25:49.278Z,100443.13
2023-02-19T07:28:54.756Z,100437.84
2023-02-19T07:31:57.392Z,100438.66
2023-02-19T07:35:04.005Z,100439.88
2023-02-19T07:38:06.595Z,100438.25
2023-02-19T07:41:09.451Z,100427.88
2023-02-19T07:44:16.547Z,100435.41
2023-02-19T07:47:22.240Z,100433.78
2023-02-19T07:50:24.766Z,100434.59
2023-02-19T07:53:27.727Z,100420.97
2023-02-19T07:56:36.298Z,100426.66
2023-02-19T07:59:41.922Z,100433.19
2023-02-19T08:03:00.362Z,100422.78
2023-02-19T08:06:03.328Z,100412.78
2023-02-19T08:09:08.255Z,100440.72
2023-02-19T08:12:31.583Z,100437.22
2023-02-19T08:15:34.142Z,100441.28
2023-02-19T08:18:36.824Z,100447.63
2023-02-19T08:21:39.995Z,100458.59
2023-02-19T08:24:43.122Z,100477.78
2023-02-19T08:27:48.216Z,100484.09
2023-02-19T08:30:51.118Z,100457.81
2023-02-19T08:33:56.403Z,100448.03
2023-02-19T08:36:58.990Z,100438.47
2023-02-19T08:40:01.589Z,100423.22
2023-02-19T08:43:05.820Z,100406.09
2023-02-19T08:46:11.821Z,100399.13
2023-02-19T08:49:17.179Z,100402.19
2023-02-19T08:52:19.638Z,100424.19
2023-02-19T08:55:22.251Z,100437.88
2023-02-19T08:58:27.582Z,100424.81
2023-02-19T09:01:30.159Z,100418.66
2023-02-19T09:04:37.821Z,100425.81
2023-02-19T09:07:40.801Z,100414.81
2023-02-19T09:10:43.550Z,100436.59
2023-02-19T09:13:46.193Z,100440.69
2023-02-19T09:16:48.716Z,100447.00
2023-02-19T09:19:51.309Z,100455.78
2023-02-19T09:22:58.508Z,100428.75
2023-02-19T09:26:06.900Z,100438.91
2023-02-19T09:29:09.583Z,100435.16
2023-02-19T09:32:15.521Z,100414.94
2023-02-19T09:35:18.825Z,100420.59
2023-02-19T09:38:21.518Z,100432.38
2023-02-19T09:41:26.729Z,100421.66
2023-02-19T09:44:37.541Z,100428.91
2023-02-19T09:47:40.189Z,100418.56
2023-02-19T09:50:50.180Z,100419.78
2023-02-19T09:53:54.145Z,100425.94
2023-02-19T09:57:00.049Z,100412.09
2023-02-19T10:00:27.904Z,100411.69
2023-02-19T10:03:43.345Z,100409.06
2023-02-19T10:06:46.836Z,100398.78
2023-02-19T10:09:57.827Z,100405.81
2023-02-19T10:13:42.917Z,100382.22
2023-02-19T10:16:48.125Z,100377.13
2023-02-19T10:19:52.128Z,100386.09
2023-02-19T10:23:13.851Z,100382.88
2023-02-19T10:26:16.537Z,100381.78
2023-02-19T10:29:20.291Z,100372.63
2023-02-19T10:32:25.368Z,100373.00
2023-02-19T10:35:30.297Z,100372.34
2023-02-19T10:38:39.282Z,100374.78
2023-02-19T10:41:44.130Z,100394.81
2023-02-19T10:44:53.941Z,100382.63
2023-02-19T10:47:57.009Z,100382.88
2023-02-19T10:51:06.237Z,100400.03
2023-02-19T10:54:34.918Z,100384.53
2023-02-19T10:57:38.138Z,100364.94
2023-02-19T11:00:40.846Z,100379.53
2023-02-19T11:03:43.724Z,100373.94
2023-02-19T11:06:46.989Z,100366.22
2023-02-19T11:09:53.844Z,100368.09
2023-02-19T11:13:03.845Z,100361.69
2023-02-19T11:16:06.576Z,100361.63
2023-02-19T11:19:31.907Z,100362.44
2023-02-19T11:22:38.591Z,100361.44
2023-02-19T11:25:56.482Z,100359.44
2023-02-19T11:29:01.340Z,100365.94
2023-02-19T11:32:26.359Z,100353.56
2023-02-19T11:35:31.803Z,100349.31
2023-02-19T11:38:36.537Z,100339.94
2023-02-19T11:41:57.159Z,100333.09
2023-02-19T11:45:14.709Z,100334.72
2023-02-19T11:48:38.810Z,100326.50
2023-02-19T11:51:56.589Z,100309.44
2023-02-19T11:55:26.385Z,100317.88
2023-02-19T11:58:54.407Z,100309.94
2023-02-19T12:02:27.278Z,100309.47
2023-02-19T12:05:41.259Z,100303.78
2023-02-19T12:09:09.721Z,100307.47
2023-02-19T12:12:18.150Z,100305.53
2023-02-19T12:19:14.067Z,100290.66
2023-02-19T12:22:22.606Z,100291.16
2023-02-19T12:25:42.035Z,100303.56
2023-02-19T12:29:18.804Z,100295.69
2023-02-19T12:32:53.484Z,100305.75
2023-02-19T12:36:21.000Z,100304.78
2023-02-19T12:39:41.626Z,100306.50
2023-02-19T12:43:09.182Z,100306.84
2023-02-19T12:46:48.063Z,100319.63
2023-02-19T12:50:11.568Z,100322.91
2023-02-19T12:53:26.059Z,100320.00
2023-02-19T12:56:52.731Z,100325.34
2023-02-19T13:00:07.469Z,100327.09
2023-02-19T13:03:37.639Z,100331.31
2023-02-19T13:06:51.976Z,100320.56
2023-02-19T13:10:07.090Z,100301.81
2023-02-19T13:13:28.200Z,100287.00
2023-02-19T13:16:35.393Z,100286.03
2023-02-19T13:19:41.499Z,100265.72
2023-02-19T13:23:07.432Z,100273.06
2023-02-19T13:26:19.093Z,100283.78
2023-02-19T13:29:43.035Z,100280.78
2023-02-19T13:33:09.848Z,100290.75
2023-02-19T13:36:27.777Z,100291.91
2023-02-19T13:39:34.237Z,100287.06
2023-02-19T13:42:37.098Z,100294.19
2023-02-19T13:45:47.284Z,100299.19
2023-02-19T13:49:10.193Z,100289.09
2023-02-19T13:52:34.136Z,100282.84
2023-02-19T13:55:42.093Z,100291.91
2023-02-19T13:59:01.654Z,100275.75
2023-02-19T14:02:04.369Z,100266.34
2023-02-19T14:05:11.423Z,100268.59
2023-02-19T14:08:33.892Z,100257.94
2023-02-19T14:11:42.720Z,100266.66
2023-02-19T14:14:50.320Z,100261.75
2023-02-19T14:17:55.802Z,100254.84
2023-02-19T14:21:17.988Z,100275.25
2023-02-19T14:24:20.835Z,100279.28
2023-02-19T14:27:23.804Z,100281.16
2023-02-19T14:30:27.637Z,100281.00
2023-02-19T14:33:45.585Z,100284.66
2023-02-19T14:37:01.841Z,100290.34
2023-02-19T14:40:05.453Z,100296.88
2023-02-19T14:43:14.207Z,100305.22
2023-02-19T14:46:39.544Z,100292.44
2023-02-19T14:49:57.844Z,100301.81
2023-02-19T14:53:04.489Z,100310.03
2023-02-19T14:56:17.009Z,100314.41
2023-02-19T14:59:26.090Z,100314.63
2023-02-19T15:02:31.698Z,100317.13
2023-02-19T15:05:40.248Z,100316.56
2023-02-19T15:08:48.944Z,100345.34
2023-02-19T15:11:51.864Z,100328.38
2023-02-19T15:15:01.165Z,100331.19
2023-02-19T15:18:06.727Z,100334.91
2023-02-19T15:21:23.664Z,100337.22
2023-02-19T15:24:28.353Z,100339.97
2023-02-19T15:27:34.568Z,100344.50
2023-02-19T15:30:39.921Z,100344.06
2023-02-19T15:33:50.549Z,100352.84
2023-02-19T15:37:05.927Z,100331.88
2023-02-19T15:40:14.098Z,100339.03
2023-02-19T15:43:40.042Z,100330.44
2023-02-19T15:46:44.124Z,100358.84
2023-02-19T15:49:54.530Z,100347.16
2023-02-19T15:53:15.040Z,100357.19
2023-02-19T15:56:28.445Z,100378.84
2023-02-19T15:59:56.615Z,100376.06
2023-02-19T16:02:59.816Z,100379.25
2023-02-19T16:06:14.271Z,100378.28
2023-02-19T16:09:23.772Z,100386.84
2023-02-19T16:12:29.808Z,100377.28
2023-02-19T16:15:33.312Z,100375.53
2023-02-19T16:18:44.118Z,100391.66
2023-02-19T16:21:46.937Z,100396.88
2023-02-19T16:25:13.094Z,100412.06
2023-02-19T16:28:24.264Z,100413.44
2023-02-19T16:31:27.196Z,100397.00
2023-02-19T16:34:47.822Z,100434.81
2023-02-19T16:37:58.561Z,100438.28
2023-02-19T16:41:07.332Z,100438.06
2023-02-19T16:44:22.108Z,100451.31
2023-02-19T16:47:33.165Z,100460.13
2023-02-19T16:50:36.277Z,100466.28
2023-02-19T16:53:39.048Z,100476.69
2023-02-19T16:56:41.763Z,100485.06
2023-02-19T16:59:48.154Z,100500.06
2023-02-19T17:02:53.041Z,100490.75
2023-02-19T17:05:56.436Z,100503.97
2023-02-19T17:08:59.245Z,100512.91
2023-02-19T17:12:02.037Z,100516.28
2023-02-19T17:15:05.033Z,100495.13
2023-02-19T17:18:12.905Z,100522.16
2023-02-19T17:21:25.187Z,100523.19
2023-02-19T17:24:30.864Z,100535.88
2023-02-19T17:27:35.964Z,100505.50
2023-02-19T17:30:40.516Z,100519.03
2023-02-19T17:33:43.827Z,100544.31
2023-02-19T17:36:48.141Z,100541.56
2023-02-19T17:39:50.935Z,100554.22
2023-02-19T17:42:53.788Z,100579.03
2023-02-19T17:45:56.389Z,100593.72
2023-02-19T17:48:59.212Z,100620.41
2023-02-19T17:52:04.785Z,100646.50
2023-02-19T17:55:11.482Z,100651.19
2023-02-19T17:58:14.602Z,100671.66
2023-02-19T18:01:17.402Z,100691.78
2023-02-19T18:04:20.033Z,100699.44
2023-02-19T18:07:22.856Z,100708.16
2023-02-19T18:10:25.724Z,100705.25
2023-02-19T18:13:28.672Z,100705.03
2023-02-19T18:16:31.473Z,100708.28
2023-02-19T18:19:34.240Z,100716.44
2023-02-19T18:22:39.940Z,100752.56
2023-02-19T18:25:43.447Z,100758.00
2023-02-19T18:28:47.064Z,100750.06
2023-02-19T18:31:58.876Z,100743.56
2023-02-19T18:35:02.097Z,100735.19
2023-02-19T18:38:05.018Z,100728.25
2023-02-19T18:41:12.939Z,100719.09
2023-02-19T18:44:23.786Z,100726.63
2023-02-19T18:47:27.106Z,100717.47
2023-02-19T18:50:29.880Z,100720.72
2023-02-19T18:53:32.670Z,100716.41
2023-02-19T18:56:47.958Z,100719.66
2023-02-19T18:59:50.967Z,100729.66
2023-02-19T19:03:00.231Z,100732.44
2023-02-19T19:06:03.054Z,100730.00
2023-02-19T19:09:06.163Z,100728.31
2023-02-19T19:12:08.903Z,100731.75
2023-02-19T19:15:11.531Z,100747.59
2023-02-19T19:18:14.132Z,100761.41
2023-02-19T19:21:17.065Z,100754.25
2023-02-19T19:24:20.488Z,100769.00
2023-02-19T19:27:23.351Z,100775.38
2023-02-19T19:30:26.398Z,100775.84
2023-02-19T19:33:29.212Z,100782.78
2023-02-19T19:36:36.712Z,100769.81
2023-02-19T19:39:39.603Z,100774.97
2023-02-19T19:42:44.869Z,100792.75
2023-02-19T19:45:50.062Z,100793.56
2023-02-19T19:48:59.050Z,100795.16
2023-02-19T19:52:01.927Z,100803.13
2023-02-19T19:55:08.254Z,100807.56
2023-02-19T19:58:11.131Z,100793.06
2023-02-19T20:01:15.209Z,100776.69
2023-02-19T20:04:21.884Z,100784.00
2023-02-19T20:07:24.657Z,100791.84
2023-02-19T20:10:27.421Z,100812.75
2023-02-19T20:13:34.564Z,100814.06
2023-02-19T20:16:37.601Z,100828.19
2023-02-19T20:19:40.428Z,100832.19
2023-02-19T20:22:43.498Z,100832.47
2023-02-19T20:25:48.804Z,100841.06
2023-02-19T20:28:52.181Z,100832.38
2023-02-19T20:31:55.630Z,100841.88
2023-02-19T20:34:58.548Z,100845.44
2023-02-19T20:38:01.359Z,100828.22
2023-02-19T20:41:06.661Z,100851.53
2023-02-19T20:44:09.905Z,100843.03
2023-02-19T20:47:12.707Z,100854.22
2023-02-19T20:50:17.917Z,100848.06
2023-02-19T20:53:20.741Z,100874.09
2023-02-19T20:56:26.757Z,100882.22
2023-02-19T20:59:34.936Z,100888.47
2023-02-19T21:02:37.621Z,100869.59
2023-02-19T21:05:43.133Z,100882.16
2023-02-19T21:08:50.927Z,100882.41
2023-02-19T21:11:53.939Z,100878.78
2023-02-19T21:14:56.699Z,100881.41
2023-02-19T21:18:01.226Z,100882.25
2023-02-19T21:21:04.054Z,100879.00
2023-02-19T21:24:09.582Z,100861.03
2023-02-19T21:27:15.441Z,100896.25
2023-02-19T21:30:18.351Z,100882.28
2023-02-19T21:33:21.232Z,100889.66
2023-02-19T21:36:23.985Z,100888.22
2023-02-19T21:39:27.666Z,100901.97
2023-02-19T21:42:30.288Z,100886.91
2023-02-19T21:45:43.259Z,100889.34
2023-02-19T21:48:49.947Z,100890.47
2023-02-19T21:51:52.536Z,100875.72
2023-02-19T21:54:58.321Z,100910.91
2023-02-19T21:58:00.902Z,100910.53
2023-02-19T22:01:03.539Z,100913.56
2023-02-19T22:04:07.260Z,100921.13
2023-02-19T22:07:10.012Z,100919.25
2023-02-19T22:10:16.775Z,100937.13
2023-02-19T22:13:19.471Z,100935.31
2023-02-19T22:16:22.275Z,100950.94
2023-02-19T22:19:24.887Z,100956.78
2023-02-19T22:22:27.443Z,100954.25
2023-02-19T22:25:29.943Z,100968.25
2023-02-19T22:28:32.538Z,100973.88
2023-02-19T22:31:38.153Z,100980.81
2023-02-19T22:34:42.003Z,100995.63
2023-02-19T22:37:44.589Z,100998.53
2023-02-19T22:40:47.227Z,101002.72
2023-02-19T22:43:50.508Z,101007.19
2023-02-19T22:46:55.301Z,100992.53
2023-02-19T22:49:57.890Z,101012.78
2023-02-19T22:53:00.450Z,101016.78
2023-02-19T22:56:03.143Z,101023.63
2023-02-19T22:59:05.774Z,101011.34
2023-02-19T23:02:08.344Z,101006.38
2023-02-19T23:05:10.901Z,101013.44
2023-02-19T23:08:16.519Z,101018.63
2023-02-19T23:11:24.737Z,101007.22
2023-02-19T23:14:27.358Z,101017.41
2023-02-19T23:17:30.004Z,101001.72
2023-02-19T23:20:32.737Z,101001.03
2023-02-19T23:23:35.362Z,101014.06
2023-02-19T23:26:49.290Z,101013.06
2023-02-19T23:29:51.932Z,101017.41
2023-02-19T23:32:54.483Z,101014.31
2023-02-19T23:35:57.073Z,101018.53
2023-02-19T23:39:03.495Z,101035.06
2023-02-19T23:42:06.094Z,101000.97
2023-02-19T23:45:09.185Z,101052.09
2023-02-19T23:48:11.818Z,101046.00
2023-02-19T23:51:14.545Z,101064.78
2023-02-19T23:54:17.254Z,101067.47
2023-02-19T23:57:20.289Z,101080.44
